Airfield :







YOU CAN JOIN US ON...

 
LOGIN :

Register | Disclaimer

   EN    FR    IT 

 









Legend :    VFR   Marginal VFR   IFR   Intensive IFR   Very Intensive IFR
Visi :
Ceiling :
>= 8 km
>= 3000ft
5 to 8 km
1000 to 3000 ft
1500m to 5 km
500 to 1000 ft
800 to 1500m
200 to 500 ft
< 800m
< 200 ft
Symbols :   Thunderstorms  Fog  Heavy snow  Heavy precipitations  Wind > 20 kt






- Airport Elevation : 586 ft
- IATA code : YRJ


CYRJ - Roberval

CURRENT METAR :
  • 200100Z 32009KT 25SM FEW034 M20/M27 A3025 RMK SC2 SLP263

EXPIRED METARs :
  • 200000Z 30011G18KT 25SM DRSN FEW050 M19/M26 A3022 RMK SC2 SLP251
  • 192300Z 30009G16KT 20SM DRSN SCT057 M18/M24 A3018 RMK SC3 PRESRR SLP239

TAF TAF CYRJ
Valid from the 19 at 20:00 until the 20 at 03:00 UTC


191938Z 1920/2003 28015G30KT P6SM SCT040
TEMPO 1920/1924 5SM -SHSN BKN040
FM200000 31012G22KT P6SM SCT030
TEMPO 2000/2003 BKN030 RMK NXT FCST WILL BE ISSUED AT 201245Z



MET'MAP, your aeronautical weather chart ! - Copyright ORBIFLY December 2007 - Disclaimer

ORBIFLY MET'MAP TEAM :

Programming & Development : Alexandra Zaïnal
Concept & original design : Baudouin d'Aumeries
Assistance for programming : Marc-Olivier Méhu
Technical & hardware support : Manuel Goepfert

Contact : metmap@orbifly.com




SOURCES & CREDITS :

   NOAA